Time;durP1;ratioP1;P1;durP2;ratioP2;P2;SDS_P1;SDS_P2;PMS_P1;PMS_P2;Temp;Humidity;BMP_temperature;BMP_pressure;BME280_temperature;BME280_humidity;BME280_pressure;Samples;Min_cycle;Max_cycle;Signal;HPM_P1;HPM_P2
2021/05/09 00:04:10;;;;;;;4.57;2.47;;;;;;;7.24;92.98;95343.97;10372074;28;20112;-78
2021/05/09 00:09:11;;;;;;;3.23;2.97;;;;;;;7.18;92.96;95344.91;10371744;28;20558;-78
2021/05/09 00:14:11;;;;;;;4.20;2.83;;;;;;;6.95;94.65;95343.06;10370663;28;20314;-79
2021/05/09 00:19:11;;;;;;;5.20;2.57;;;;;;;6.84;96.62;95350.09;10370556;28;20038;-79
2021/05/09 00:24:12;;;;;;;6.67;3.47;;;;;;;6.69;98.28;95349.75;10369284;28;20531;-79
2021/05/09 00:29:12;;;;;;;6.60;3.70;;;;;;;6.58;100.00;95344.16;10371313;28;20331;-79
2021/05/09 00:34:13;;;;;;;4.88;3.63;;;;;;;6.55;99.16;95343.84;10371298;28;20029;-79
2021/05/09 00:39:13;;;;;;;7.40;3.73;;;;;;;6.57;97.94;95341.72;10371301;28;20034;-79
2021/05/09 00:44:13;;;;;;;3.60;3.30;;;;;;;6.56;100.00;95337.44;10371018;28;20096;-79
2021/05/09 00:49:14;;;;;;;5.10;3.17;;;;;;;6.58;98.83;95338.81;10370935;28;20288;-79
2021/05/09 00:54:16;;;;;;;5.13;3.25;;;;;;;6.55;100.00;95338.50;10371219;28;20034;-79
2021/05/09 00:59:18;;;;;;;6.15;4.03;;;;;;;6.76;100.00;95345.91;10370242;28;20045;-79
2021/05/09 01:04:18;;;;;;;6.10;3.35;;;;;;;6.77;100.00;95349.41;10370168;28;20025;-79
2021/05/09 01:09:19;;;;;;;4.53;3.53;;;;;;;6.54;100.00;95345.66;10370103;28;20025;-79
2021/05/09 01:14:19;;;;;;;5.22;3.40;;;;;;;6.36;100.00;95351.94;10370314;28;20034;-79
2021/05/09 01:19:19;;;;;;;3.97;3.50;;;;;;;6.53;100.00;95357.41;10370112;28;20037;-79
2021/05/09 01:24:20;;;;;;;5.45;2.88;;;;;;;6.56;100.00;95348.94;10352103;28;20029;-79
2021/05/09 01:29:20;;;;;;;6.80;4.33;;;;;;;6.37;100.00;95363.44;10369532;28;20418;-79
2021/05/09 01:34:21;;;;;;;5.22;3.38;;;;;;;6.36;100.00;95359.13;10351680;28;20030;-78
2021/05/09 01:39:21;;;;;;;8.05;3.47;;;;;;;6.42;100.00;95355.53;10369142;28;20036;-78
2021/05/09 01:44:23;;;;;;;6.37;3.60;;;;;;;6.50;100.00;95366.69;10368931;28;20425;-78
2021/05/09 01:49:23;;;;;;;3.50;2.78;;;;;;;6.47;100.00;95367.16;10368821;28;20578;-79
2021/05/09 01:54:24;;;;;;;4.30;2.80;;;;;;;6.40;100.00;95373.66;10369310;28;20200;-78
2021/05/09 01:59:24;;;;;;;6.13;4.00;;;;;;;6.42;100.00;95379.56;10368098;28;20192;-78
2021/05/09 02:04:24;;;;;;;7.47;3.33;;;;;;;6.41;100.00;95377.97;10368264;28;20326;-78
2021/05/09 02:09:25;;;;;;;6.90;3.15;;;;;;;6.37;100.00;95376.78;10368092;28;20095;-78
2021/05/09 02:14:25;;;;;;;4.47;3.15;;;;;;;6.28;100.00;95384.31;10366601;28;20033;-78
2021/05/09 02:19:26;;;;;;;7.90;4.60;;;;;;;6.13;100.00;95382.09;10366602;28;20029;-78
2021/05/09 02:24:26;;;;;;;6.83;3.50;;;;;;;6.07;100.00;95383.00;10366362;28;20083;-78
2021/05/09 02:29:26;;;;;;;9.80;4.35;;;;;;;5.91;100.00;95387.09;10366367;28;20033;-78
2021/05/09 02:34:27;;;;;;;5.28;4.00;;;;;;;5.77;100.00;95389.13;10367313;28;20029;-78
2021/05/09 02:39:27;;;;;;;12.77;4.80;;;;;;;5.71;100.00;95387.38;10367580;28;20389;-78
2021/05/09 02:44:28;;;;;;;6.90;4.07;;;;;;;5.63;100.00;95389.31;10366079;28;20505;-78
2021/05/09 02:49:28;;;;;;;12.02;4.20;;;;;;;5.75;100.00;95399.22;10365849;28;20500;-79
2021/05/09 02:54:29;;;;;;;8.40;4.15;;;;;;;5.70;100.00;95409.75;10365971;28;20100;-78
2021/05/09 02:59:29;;;;;;;4.72;2.88;;;;;;;5.57;100.00;95405.41;10366045;28;20875;-78
2021/05/09 03:04:29;;;;;;;6.50;4.20;;;;;;;5.62;100.00;95403.69;10365384;28;20034;-78
2021/05/09 03:09:30;;;;;;;13.60;4.30;;;;;;;5.55;100.00;95412.81;10365589;28;20033;-78
2021/05/09 03:14:30;;;;;;;9.38;4.05;;;;;;;5.56;100.00;95420.59;10366765;28;20034;-78
2021/05/09 03:19:31;;;;;;;7.10;3.87;;;;;;;5.51;100.00;95422.28;10366438;28;20026;-79
2021/05/09 03:24:33;;;;;;;5.35;3.55;;;;;;;5.47;100.00;95417.41;10369947;28;20121;-78
2021/05/09 03:29:33;;;;;;;5.50;3.72;;;;;;;5.39;100.00;95420.38;10357537;28;20536;-79
2021/05/09 03:34:34;;;;;;;4.73;4.10;;;;;;;5.37;100.00;95416.31;10373663;28;20034;-79
2021/05/09 03:39:34;;;;;;;5.70;4.33;;;;;;;5.29;100.00;95436.91;10373778;28;20275;-78
2021/05/09 03:44:34;;;;;;;8.37;4.27;;;;;;;5.22;100.00;95436.16;10373419;28;20058;-77
2021/05/09 03:49:35;;;;;;;10.33;4.10;;;;;;;5.22;100.00;95444.16;10372830;28;20029;-77
2021/05/09 03:54:35;;;;;;;5.67;4.60;;;;;;;5.27;100.00;95462.97;10374072;28;20120;-77
2021/05/09 03:59:35;;;;;;;9.03;4.97;;;;;;;5.44;100.00;95463.19;10372653;28;20314;-77
2021/05/09 04:04:36;;;;;;;6.63;5.30;;;;;;;5.52;100.00;95471.91;10372913;28;20032;-77
2021/05/09 04:09:36;;;;;;;11.40;5.18;;;;;;;5.67;100.00;95479.56;10372520;28;20392;-78
2021/05/09 04:14:36;;;;;;;4.80;3.83;;;;;;;5.64;100.00;95486.94;10371814;28;20033;-78
2021/05/09 04:19:37;;;;;;;5.73;3.57;;;;;;;5.71;100.00;95483.41;10371142;28;20038;-78
2021/05/09 04:24:37;;;;;;;9.02;3.22;;;;;;;5.80;100.00;95484.72;10370811;28;20273;-78
2021/05/09 04:29:37;;;;;;;4.80;2.90;;;;;;;5.84;100.00;95495.75;10371935;28;20416;-80
2021/05/09 04:34:38;;;;;;;6.93;3.00;;;;;;;5.90;100.00;95489.50;10370955;28;20537;-79
2021/05/09 04:39:38;;;;;;;7.87;3.90;;;;;;;6.18;100.00;95498.81;10371541;28;20072;-77
2021/05/09 04:44:38;;;;;;;3.27;2.97;;;;;;;6.60;100.00;95501.50;10371208;28;20053;-78
2021/05/09 04:49:39;;;;;;;3.00;2.20;;;;;;;6.89;99.41;95521.19;10371105;28;20030;-78
2021/05/09 04:54:39;;;;;;;3.87;2.60;;;;;;;6.99;98.45;95512.59;10371321;28;20893;-78
2021/05/09 04:59:39;;;;;;;4.17;2.43;;;;;;;7.39;95.70;95511.13;10370286;28;20401;-78
2021/05/09 05:04:40;;;;;;;2.93;1.90;;;;;;;7.78;91.77;95504.19;10375339;28;20041;-78
2021/05/09 05:09:41;;;;;;;4.47;2.40;;;;;;;8.76;89.31;95500.66;10369873;28;20029;-78
2021/05/09 05:14:42;;;;;;;2.92;2.20;;;;;;;9.37;77.55;95491.97;10367480;28;20042;-77
2021/05/09 05:19:42;;;;;;;11.23;2.42;;;;;;;10.13;73.77;95499.38;10356148;28;20023;-79
2021/05/09 05:24:42;;;;;;;2.40;1.97;;;;;;;10.69;67.89;95499.19;10371130;28;20026;-78
2021/05/09 05:29:43;;;;;;;5.53;2.53;;;;;;;11.45;62.13;95503.50;10370661;28;20029;-78
2021/05/09 05:34:43;;;;;;;5.10;2.30;;;;;;;12.33;58.20;95503.97;10382797;28;20300;-79
2021/05/09 05:39:43;;;;;;;7.93;2.87;;;;;;;13.24;53.54;95500.84;10368932;28;20045;-79
2021/05/09 05:44:44;;;;;;;2.13;1.80;;;;;;;14.14;48.66;95502.81;10368345;28;20045;-79
2021/05/09 05:49:44;;;;;;;4.07;2.00;;;;;;;14.82;46.08;95506.84;10377955;28;20040;-79
2021/05/09 05:54:44;;;;;;;4.40;2.00;;;;;;;14.73;45.37;95505.00;10390063;28;20399;-81
2021/05/09 05:59:45;;;;;;;2.23;1.97;;;;;;;15.81;42.27;95507.66;10399551;28;20069;-81
2021/05/09 06:04:45;;;;;;;5.30;2.13;;;;;;;16.67;42.57;95500.63;10391234;28;20021;-81
2021/05/09 06:09:46;;;;;;;7.80;2.47;;;;;;;17.69;39.34;95500.94;10390178;28;20029;-80
2021/05/09 06:14:46;;;;;;;3.10;2.40;;;;;;;18.41;40.02;95507.75;10385733;28;20028;-79
2021/05/09 06:19:46;;;;;;;4.43;3.03;;;;;;;18.60;37.95;95502.19;10409844;28;20021;-78
2021/05/09 06:24:47;;;;;;;7.97;3.03;;;;;;;19.89;36.86;95503.81;10409330;28;20463;-79
2021/05/09 06:29:47;;;;;;;6.37;3.40;;;;;;;20.26;35.73;95496.22;10409001;28;20160;-78
2021/05/09 06:34:47;;;;;;;6.00;3.43;;;;;;;20.43;34.35;95498.22;10408055;28;20335;-79
2021/05/09 06:39:48;;;;;;;6.80;3.57;;;;;;;20.12;34.26;95491.72;10408632;28;20033;-79
2021/05/09 06:44:54;;;;;;;7.03;3.43;;;;;;;21.04;33.93;95492.84;10409661;28;20045;-81
2021/05/09 06:49:54;;;;;;;7.65;3.42;;;;;;;21.41;32.81;95503.47;10407892;28;20367;-80
2021/05/09 06:54:54;;;;;;;9.63;3.07;;;;;;;21.72;29.54;95511.47;10408324;28;20040;-79
2021/05/09 06:59:55;;;;;;;4.40;2.60;;;;;;;21.38;28.82;95512.28;10415489;28;20037;-79
2021/05/09 07:04:55;;;;;;;3.65;2.33;;;;;;;22.43;28.14;95512.84;10421174;28;20013;-79
2021/05/09 07:09:56;;;;;;;2.83;1.67;;;;;;;23.25;27.41;95500.72;10419769;28;20411;-80
2021/05/09 07:14:56;;;;;;;4.55;2.40;;;;;;;23.63;26.09;95502.47;10419757;28;20371;-78
2021/05/09 07:19:56;;;;;;;6.27;2.07;;;;;;;24.41;24.76;95508.22;10420173;28;20037;-76
2021/05/09 07:24:57;;;;;;;6.73;2.43;;;;;;;23.67;27.18;95508.09;10418647;28;20025;-77
2021/05/09 07:29:57;;;;;;;4.33;2.20;;;;;;;24.57;26.00;95498.16;10420922;28;20298;-76
2021/05/09 07:34:57;;;;;;;5.03;2.03;;;;;;;25.20;25.93;95498.84;10420908;28;20083;-77
2021/05/09 07:39:58;;;;;;;4.23;2.37;;;;;;;25.59;25.21;95504.69;10417223;28;20342;-77
2021/05/09 07:44:59;;;;;;;4.10;2.10;;;;;;;25.76;25.49;95498.88;10417990;28;20532;-76
2021/05/09 07:50:00;;;;;;;7.45;2.35;;;;;;;26.62;25.46;95491.19;10419061;28;20112;-77
2021/05/09 07:55:00;;;;;;;3.73;1.93;;;;;;;27.34;23.62;95500.28;10419253;28;20029;-77
2021/05/09 08:00:01;;;;;;;4.47;1.87;;;;;;;26.97;23.65;95486.88;10420737;28;20037;-76
2021/05/09 08:05:01;;;;;;;3.67;1.80;;;;;;;26.20;24.77;95486.25;10403088;28;20021;-76
2021/05/09 08:10:02;;;;;;;3.13;1.90;;;;;;;27.34;23.91;95472.66;10416880;28;20087;-76
2021/05/09 08:15:03;;;;;;;7.97;1.80;;;;;;;27.31;23.41;95476.13;10395504;28;20469;-76
2021/05/09 08:20:05;;;;;;;3.28;1.58;;;;;;;26.48;24.55;95482.59;10417572;28;20207;-76
2021/05/09 08:25:07;;;;;;;2.40;1.52;;;;;;;27.21;23.35;95483.03;10412955;28;20552;-78
2021/05/09 08:30:08;;;;;;;2.80;1.67;;;;;;;28.65;23.03;95474.63;10413118;28;20029;-76
2021/05/09 08:35:11;;;;;;;6.20;2.50;;;;;;;29.35;23.32;95477.16;10413468;28;20088;-77
2021/05/09 08:40:14;;;;;;;2.55;1.27;;;;;;;30.56;21.19;95470.47;10407981;28;20049;-76
2021/05/09 08:45:17;;;;;;;5.75;1.60;;;;;;;29.93;21.92;95467.53;10406291;28;20111;-77
2021/05/09 08:50:20;;;;;;;4.75;1.65;;;;;;;30.48;22.05;95461.31;10412322;28;20025;-76
2021/05/09 08:55:23;;;;;;;2.20;1.63;;;;;;;30.61;21.36;95467.34;10412491;28;20043;-76
2021/05/09 09:00:25;;;;;;;1.90;1.27;;;;;;;31.09;20.42;95458.16;10411578;28;20275;-77
2021/05/09 09:05:46;;;;;;;2.00;1.13;;;;;;;31.00;19.50;95462.03;10394586;28;20067;-77
2021/05/09 09:10:49;;;;;;;5.85;1.70;;;;;;;29.74;21.42;95455.47;10411039;28;20026;-77
2021/05/09 09:15:58;;;;;;;2.90;1.00;;;;;;;30.67;19.72;95449.16;10417577;28;20025;-77
2021/05/09 09:21:18;;;;;;;2.35;1.38;;;;;;;31.25;20.79;95424.50;10410525;28;20071;-76
2021/05/09 09:26:24;;;;;;;1.42;0.70;;;;;;;31.26;19.22;95420.53;10401838;28;20542;-77
2021/05/09 09:31:44;;;;;;;5.32;1.02;;;;;;;32.06;18.78;95416.75;10388075;28;20033;-77
2021/05/09 09:36:45;;;;;;;1.10;0.63;;;;;;;32.73;17.34;95422.72;10388589;28;20041;-77
2021/05/09 09:41:48;;;;;;;2.13;0.60;;;;;;;31.98;16.44;95421.50;10387689;28;20083;-76
2021/05/09 09:46:52;;;;;;;0.88;0.50;;;;;;;32.60;15.79;95415.97;10386856;28;20432;-76
2021/05/09 09:52:02;;;;;;;1.27;0.80;;;;;;;32.78;16.24;95413.16;10371146;28;20033;-76
2021/05/09 09:57:11;;;;;;;2.65;0.85;;;;;;;33.67;17.81;95408.44;10398142;28;20025;-76
2021/05/09 10:02:12;;;;;;;1.50;0.43;;;;;;;32.97;15.50;95415.50;10401347;28;20393;-76
2021/05/09 10:07:12;;;;;;;2.33;0.50;;;;;;;32.13;15.35;95407.63;10393571;28;20037;-76
2021/05/09 10:12:12;;;;;;;1.33;0.70;;;;;;;31.90;15.50;95396.88;10391471;28;20040;-76
2021/05/09 10:17:13;;;;;;;1.13;0.63;;;;;;;32.69;14.90;95402.47;10409065;28;20033;-76
2021/05/09 10:22:30;;;;;;;0.65;0.52;;;;;;;31.81;14.71;95400.06;10408311;28;20029;-76
2021/05/09 10:27:35;;;;;;;3.35;0.52;;;;;;;31.73;15.27;95390.91;10408616;28;20076;-77
2021/05/09 10:32:35;;;;;;;0.57;0.43;;;;;;;32.48;14.71;95392.91;10408770;28;20032;-79
2021/05/09 10:37:36;;;;;;;2.17;0.67;;;;;;;32.94;14.62;95391.25;10408331;28;20033;-81
2021/05/09 10:42:37;;;;;;;2.42;0.47;;;;;;;32.06;15.04;95391.75;10394306;28;20045;-76
2021/05/09 10:47:37;;;;;;;1.03;0.50;;;;;;;31.63;15.97;95381.38;10367569;28;20025;-78
2021/05/09 10:52:45;;;;;;;2.20;1.20;;;;;;;30.27;15.86;95370.41;10367380;28;20092;-78
2021/05/09 10:57:46;;;;;;;2.35;0.50;;;;;;;30.59;16.08;95362.31;10380815;28;20033;-77
2021/05/09 11:02:46;;;;;;;0.75;0.70;;;;;;;31.46;15.41;95352.34;10367374;28;20088;-77
2021/05/09 11:07:46;;;;;;;0.70;0.37;;;;;;;28.77;16.89;95369.31;10366949;28;20040;-77
2021/05/09 11:13:03;;;;;;;0.65;0.52;;;;;;;24.72;19.98;95364.72;10366545;28;20100;-77
2021/05/09 11:18:16;;;;;;;0.75;0.55;;;;;;;22.09;22.09;95371.41;10367006;28;20041;-77
2021/05/09 11:23:16;;;;;;;1.05;0.73;;;;;;;20.72;23.71;95371.19;10366455;28;20030;-78
2021/05/09 11:28:26;;;;;;;2.75;0.98;;;;;;;20.35;25.25;95368.75;10366410;28;20041;-77
2021/05/09 11:33:52;;;;;;;1.10;1.00;;;;;;;19.95;24.82;95366.94;10366416;28;20037;-77
2021/05/09 11:39:11;;;;;;;4.00;1.10;;;;;;;19.43;25.23;95364.00;10366150;28;20037;-77
2021/05/09 11:44:11;;;;;;;12.85;1.48;;;;;;;19.28;25.67;95355.13;10393123;28;20042;-77
2021/05/09 11:49:25;;;;;;;2.20;1.23;;;;;;;19.19;26.30;95354.28;10414312;28;20029;-77
2021/05/09 11:54:28;;;;;;;2.30;0.90;;;;;;;19.21;26.44;95343.84;10414733;28;20408;-77
2021/05/09 11:59:49;;;;;;;2.83;0.85;;;;;;;19.16;26.55;95345.91;10414286;28;20072;-77
2021/05/09 12:05:02;;;;;;;3.80;1.15;;;;;;;19.20;26.39;95336.81;10413688;28;20111;-78
2021/05/09 12:10:08;;;;;;;2.35;1.05;;;;;;;19.33;26.93;95334.31;10384287;28;20041;-77
2021/05/09 12:15:12;;;;;;;1.83;0.80;;;;;;;19.09;26.54;95332.75;10377153;28;20022;-77
2021/05/09 12:20:26;;;;;;;3.90;1.02;;;;;;;18.99;26.65;95325.66;10412790;28;20034;-77
2021/05/09 12:25:44;;;;;;;4.60;1.13;;;;;;;18.91;26.87;95329.13;10413746;28;20061;-77
2021/05/09 12:30:47;;;;;;;0.90;0.80;;;;;;;18.89;27.50;95320.47;10412833;28;20033;-77
2021/05/09 12:35:50;;;;;;;2.75;0.88;;;;;;;18.83;27.45;95327.94;10412784;28;20499;-77
2021/05/09 12:41:20;;;;;;;2.42;0.80;;;;;;;18.94;27.49;95314.88;10395060;28;20029;-77
2021/05/09 12:46:40;;;;;;;2.13;1.02;;;;;;;18.79;27.17;95308.66;10363159;28;20085;-77
2021/05/09 12:51:55;;;;;;;2.15;0.98;;;;;;;18.77;27.45;95308.19;10371239;28;20033;-77
2021/05/09 12:57:30;;;;;;;2.85;0.90;;;;;;;18.72;27.39;95312.97;10370214;28;20092;-77
2021/05/09 13:02:50;;;;;;;2.65;0.80;;;;;;;18.58;27.25;95316.53;10353420;28;20021;-78
2021/05/09 13:07:52;;;;;;;3.38;0.80;;;;;;;18.58;27.44;95299.41;10352664;28;20473;-78
2021/05/09 13:12:55;;;;;;;2.80;2.55;;;;;;;18.52;27.36;95308.84;10378993;28;20136;-77
2021/05/09 13:17:55;;;;;;;1.67;1.13;;;;;;;18.53;27.47;95292.19;10411328;28;20495;-78
2021/05/09 13:22:56;;;;;;;4.35;1.08;;;;;;;18.57;27.64;95293.19;10411510;28;20028;-78
2021/05/09 13:27:56;;;;;;;0.70;0.70;;;;;;;18.35;27.00;95298.59;10411166;28;20033;-78
2021/05/09 13:32:57;;;;;;;0.93;0.80;;;;;;;18.46;28.00;95289.09;10410579;28;20026;-78
2021/05/09 13:37:57;;;;;;;1.50;1.00;;;;;;;18.57;28.22;95285.03;10410809;28;20033;-78
2021/05/09 13:42:58;;;;;;;1.95;0.90;;;;;;;18.49;28.08;95293.94;10393901;28;20476;-77
2021/05/09 13:47:59;;;;;;;3.27;1.57;;;;;;;18.40;28.23;95293.06;10369246;28;20409;-78
2021/05/09 13:53:03;;;;;;;2.05;0.88;;;;;;;18.43;28.44;95285.09;10369554;28;20040;-78
2021/05/09 13:58:03;;;;;;;1.60;1.30;;;;;;;18.43;28.91;95286.97;10368832;28;20030;-77
2021/05/09 14:03:03;;;;;;;2.60;1.27;;;;;;;18.39;29.40;95286.00;10368775;28;20577;-77
2021/05/09 14:08:04;;;;;;;1.37;1.10;;;;;;;18.38;30.42;95290.63;10367795;28;20455;-78
2021/05/09 14:13:04;;;;;;;5.22;1.30;;;;;;;18.40;30.20;95285.69;10368162;28;20296;-78
2021/05/09 14:18:05;;;;;;;2.03;1.00;;;;;;;18.45;30.28;95284.78;10352925;28;20048;-76
2021/05/09 14:23:05;;;;;;;1.45;1.23;;;;;;;18.46;30.64;95278.22;10400718;28;20294;-77
2021/05/09 14:28:06;;;;;;;3.42;1.15;;;;;;;18.41;31.03;95281.06;10408664;28;20021;-77
2021/05/09 14:33:06;;;;;;;4.10;0.97;;;;;;;18.35;31.67;95276.84;10408466;28;20036;-77
2021/05/09 14:38:07;;;;;;;10.32;1.23;;;;;;;18.37;32.20;95299.91;10408633;28;20090;-76
2021/05/09 14:43:07;;;;;;;6.77;1.23;;;;;;;18.28;32.20;95290.91;10390165;28;20568;-78
2021/05/09 14:48:07;;;;;;;1.92;1.00;;;;;;;18.15;32.77;95292.53;10367158;28;20280;-77
2021/05/09 14:53:08;;;;;;;2.30;1.10;;;;;;;18.09;32.97;95294.56;10367777;28;20091;-77
2021/05/09 14:58:08;;;;;;;5.57;1.50;;;;;;;18.07;33.29;95280.50;10366857;28;20279;-77
2021/05/09 15:03:09;;;;;;;1.80;1.42;;;;;;;18.04;34.00;95297.44;10366956;28;20157;-77
2021/05/09 15:08:09;;;;;;;4.93;1.57;;;;;;;17.92;33.71;95289.00;10367706;28;20037;-77
2021/05/09 15:13:09;;;;;;;5.20;1.10;;;;;;;17.92;34.02;95281.63;10366269;28;20033;-78
2021/05/09 15:18:10;;;;;;;1.10;1.00;;;;;;;17.97;33.45;95275.25;10366870;28;20469;-78
2021/05/09 15:23:10;;;;;;;5.07;1.67;;;;;;;17.86;34.22;95271.97;10374762;28;20400;-78
2021/05/09 15:28:11;;;;;;;3.25;1.60;;;;;;;17.88;34.13;95283.31;10374813;28;20295;-77
2021/05/09 15:33:11;;;;;;;2.43;1.30;;;;;;;17.75;34.82;95262.44;10374029;28;20032;-76
2021/05/09 15:38:11;;;;;;;3.23;1.50;;;;;;;17.69;36.14;95258.19;10374740;28;20092;-77
2021/05/09 15:43:13;;;;;;;3.60;1.97;;;;;;;17.68;36.75;95262.84;10392088;28;20444;-77
2021/05/09 15:48:13;;;;;;;2.25;1.70;;;;;;;17.72;37.49;95252.13;10414862;28;20033;-77
2021/05/09 15:53:14;;;;;;;4.13;2.07;;;;;;;17.64;37.55;95258.28;10414903;28;20037;-77
2021/05/09 15:58:14;;;;;;;5.65;2.45;;;;;;;17.60;38.54;95260.84;10414946;28;20113;-77
2021/05/09 16:03:14;;;;;;;4.50;2.17;;;;;;;17.50;38.97;95256.44;10381056;28;20468;-77
2021/05/09 16:08:17;;;;;;;3.25;1.60;;;;;;;17.55;39.13;95263.66;10372960;28;20866;-77
2021/05/09 16:13:18;;;;;;;6.30;1.92;;;;;;;17.40;39.64;95252.00;10372837;28;20054;-77
2021/05/09 16:18:19;;;;;;;7.32;2.83;;;;;;;17.12;40.55;95261.28;10372427;28;20105;-77
2021/05/09 16:23:19;;;;;;;2.58;1.80;;;;;;;16.95;41.03;95270.81;10372645;28;20022;-78
2021/05/09 16:28:19;;;;;;;7.63;2.00;;;;;;;16.72;42.38;95264.44;10371640;28;20028;-77
2021/05/09 16:33:20;;;;;;;7.13;1.77;;;;;;;16.60;42.82;95258.69;10370643;28;20026;-77
2021/05/09 16:38:20;;;;;;;2.10;1.90;;;;;;;16.52;43.79;95260.16;10371614;28;20022;-77
2021/05/09 16:43:21;;;;;;;7.60;2.10;;;;;;;16.36;43.78;95265.03;10423328;28;20804;-77
2021/05/09 16:48:21;;;;;;;8.40;2.40;;;;;;;16.22;44.02;95265.78;10417487;28;20350;-77
2021/05/09 16:53:26;;;;;;;10.93;2.13;;;;;;;16.13;44.07;95270.28;10381081;28;20057;-78
2021/05/09 16:58:27;;;;;;;4.07;2.83;;;;;;;16.00;44.68;95266.41;10378783;28;20033;-77
2021/05/09 17:03:27;;;;;;;3.40;1.98;;;;;;;15.88;44.39;95280.41;10430902;28;20378;-78
2021/05/09 17:08:28;;;;;;;2.85;1.98;;;;;;;15.83;44.82;95277.78;10395278;28;20554;-76
2021/05/09 17:13:28;;;;;;;4.18;2.72;;;;;;;15.73;44.88;95286.03;10391864;28;20403;-78
2021/05/09 17:18:29;;;;;;;4.50;1.83;;;;;;;15.63;44.99;95288.84;10396349;28;20025;-78
2021/05/09 17:23:29;;;;;;;3.85;1.83;;;;;;;15.54;44.93;95292.25;10391659;28;20378;-77
2021/05/09 17:28:30;;;;;;;4.10;2.10;;;;;;;15.49;45.14;95283.38;10387509;28;20032;-78
2021/05/09 17:33:31;;;;;;;6.82;2.05;;;;;;;15.31;45.27;95293.88;10391004;28;20710;-78
2021/05/09 17:38:31;;;;;;;6.15;2.30;;;;;;;15.25;45.39;95297.75;10387496;28;20025;-77
2021/05/09 17:43:32;;;;;;;5.10;1.97;;;;;;;15.23;45.50;95308.03;10388890;28;20040;-77
2021/05/09 17:48:32;;;;;;;5.38;1.77;;;;;;;15.09;45.93;95309.84;10373262;28;20026;-78
2021/05/09 17:53:32;;;;;;;3.07;1.80;;;;;;;15.00;46.15;95320.47;10391322;28;20025;-78
2021/05/09 17:58:33;;;;;;;2.23;1.90;;;;;;;14.84;46.44;95319.81;10387676;28;20029;-76
2021/05/09 18:03:33;;;;;;;5.32;2.63;;;;;;;14.61;47.05;95315.94;10396093;28;20029;-79
2021/05/09 18:08:35;;;;;;;2.70;2.00;;;;;;;14.56;46.92;95326.81;10389888;28;20489;-81
2021/05/09 18:13:35;;;;;;;3.67;2.35;;;;;;;14.41;47.18;95327.75;10402419;28;20514;-80
2021/05/09 18:23:40;;;;;;;5.50;2.87;;;;;;;14.23;48.18;95348.16;10402771;28;20272;-78
2021/05/09 18:28:40;;;;;;;2.65;2.30;;;;;;;14.21;48.09;95366.56;10408982;28;20547;-79
2021/05/09 18:33:41;;;;;;;5.13;2.73;;;;;;;14.04;48.39;95348.81;10409027;28;20033;-78
2021/05/09 18:38:41;;;;;;;8.68;2.10;;;;;;;13.94;47.89;95359.66;10408655;28;20276;-79
2021/05/09 18:43:42;;;;;;;12.80;2.63;;;;;;;13.99;49.60;95373.97;10386536;28;20528;-78
2021/05/09 18:48:42;;;;;;;5.38;2.42;;;;;;;13.88;49.80;95368.91;10404543;28;20129;-80
2021/05/09 18:53:42;;;;;;;2.47;1.90;;;;;;;13.77;50.39;95384.34;10409039;28;20029;-77
2021/05/09 18:58:43;;;;;;;3.37;2.23;;;;;;;13.65;50.59;95387.38;10418551;28;20151;-78
2021/05/09 19:03:43;;;;;;;6.30;2.50;;;;;;;13.54;51.30;95389.31;10434725;28;20029;-77
2021/05/09 19:08:43;;;;;;;3.07;2.40;;;;;;;13.52;51.74;95393.38;10428813;28;20075;-77
2021/05/09 19:13:44;;;;;;;8.77;2.70;;;;;;;13.46;52.35;95398.78;10403761;28;20109;-77
2021/05/09 19:18:46;;;;;;;6.13;2.67;;;;;;;13.29;52.19;95390.97;10408643;28;20036;-78
2021/05/09 19:23:47;;;;;;;8.85;2.78;;;;;;;13.04;53.20;95402.63;10393549;28;20451;-78
2021/05/09 19:28:55;;;;;;;6.32;3.13;;;;;;;12.99;54.30;95398.06;10395189;28;20091;-78
2021/05/09 19:33:55;;;;;;;2.80;2.40;;;;;;;12.86;55.59;95405.88;10403670;28;20392;-79
2021/05/09 19:38:56;;;;;;;4.57;3.10;;;;;;;12.75;56.67;95407.78;10404021;28;20037;-78
2021/05/09 19:43:58;;;;;;;4.33;2.90;;;;;;;12.70;57.97;95407.75;10379220;28;20153;-78
2021/05/09 19:48:58;;;;;;;3.10;2.80;;;;;;;12.62;59.25;95423.41;10363170;28;20284;-79
2021/05/09 19:53:59;;;;;;;2.87;2.57;;;;;;;12.58;60.36;95416.13;10400230;28;20441;-77
2021/05/09 19:58:59;;;;;;;3.33;2.60;;;;;;;12.55;61.57;95413.97;10432873;28;20450;-82
2021/05/09 20:03:59;;;;;;;5.10;2.83;;;;;;;12.47;62.72;95420.69;10449567;28;20047;-83
2021/05/09 20:09:00;;;;;;;5.75;3.30;;;;;;;12.41;64.16;95422.56;10449338;28;20129;-82
2021/05/09 20:14:00;;;;;;;4.00;3.17;;;;;;;12.39;65.93;95419.34;10397330;28;20022;-82
2021/05/09 20:19:01;;;;;;;5.03;3.90;;;;;;;12.35;66.18;95422.84;10388794;28;20383;-82
2021/05/09 20:24:02;;;;;;;4.63;3.77;;;;;;;12.39;66.91;95429.31;10386711;28;20265;-82
2021/05/09 20:29:02;;;;;;;3.55;3.25;;;;;;;12.39;66.89;95432.00;10401435;28;20310;-82
2021/05/09 20:34:03;;;;;;;5.22;2.88;;;;;;;12.31;68.21;95436.06;10448938;28;20127;-82
2021/05/09 20:39:04;;;;;;;3.40;3.10;;;;;;;12.26;69.04;95427.94;10448324;28;20025;-82
2021/05/09 20:44:04;;;;;;;2.80;2.60;;;;;;;12.24;70.66;95440.88;10449359;28;20059;-82
2021/05/09 20:49:05;;;;;;;9.68;5.95;;;;;;;12.24;70.64;95446.28;10429899;28;20053;-82
2021/05/09 20:54:06;;;;;;;3.00;2.70;;;;;;;12.22;71.37;95440.34;10412999;28;20079;-82
2021/05/09 20:59:06;;;;;;;5.15;3.30;;;;;;;12.24;71.55;95443.59;10411091;28;20117;-82
2021/05/09 21:04:07;;;;;;;4.10;3.33;;;;;;;12.21;72.64;95439.53;10413686;28;20506;-82
2021/05/09 21:09:07;;;;;;;3.58;3.28;;;;;;;12.28;72.96;95445.47;10424617;28;20087;-81
2021/05/09 21:14:07;;;;;;;3.67;3.17;;;;;;;12.13;74.14;95454.31;10412365;28;20439;-81
2021/05/09 21:19:09;;;;;;;6.93;3.20;;;;;;;12.01;75.65;95453.75;10411233;28;20385;-81
2021/05/09 21:24:09;;;;;;;3.20;2.75;;;;;;;11.92;77.19;95452.63;10412590;28;20351;-81
2021/05/09 21:29:10;;;;;;;3.53;3.23;;;;;;;11.93;77.30;95465.81;10394779;28;20116;-81
2021/05/09 21:34:10;;;;;;;3.10;2.53;;;;;;;11.95;77.08;95462.88;10412428;28;20695;-82
2021/05/09 21:39:10;;;;;;;3.40;2.93;;;;;;;11.91;78.12;95469.84;10413216;28;20025;-82
2021/05/09 21:44:11;;;;;;;3.27;3.07;;;;;;;11.77;79.57;95461.44;10412987;28;20295;-82
2021/05/09 21:49:11;;;;;;;5.03;3.00;;;;;;;11.65;81.25;95464.31;10413749;28;20022;-81
2021/05/09 21:54:11;;;;;;;4.88;3.33;;;;;;;11.52;82.76;95467.50;10414370;28;20033;-83
2021/05/09 21:59:12;;;;;;;4.43;2.85;;;;;;;11.61;82.33;95450.59;10413598;28;20125;-82
2021/05/09 22:04:13;;;;;;;3.53;2.40;;;;;;;11.57;83.04;95451.38;10395613;28;20178;-82
2021/05/09 22:09:13;;;;;;;3.27;2.80;;;;;;;11.56;83.29;95460.53;10412979;28;20488;-83
2021/05/09 22:14:14;;;;;;;3.35;2.47;;;;;;;11.54;84.26;95457.28;10412977;28;20287;-82
2021/05/09 22:19:14;;;;;;;3.60;2.77;;;;;;;11.57;83.72;95457.56;10413439;28;20033;-82
2021/05/09 22:24:16;;;;;;;9.77;3.00;;;;;;;11.60;84.25;95458.94;10394815;28;20359;-82
2021/05/09 22:29:16;;;;;;;4.47;3.13;;;;;;;11.49;85.51;95449.19;10393711;28;20272;-82
2021/05/09 22:34:16;;;;;;;2.87;2.60;;;;;;;11.46;86.10;95455.91;10411748;28;20029;-81
2021/05/09 22:39:21;;;;;;;2.93;2.67;;;;;;;11.42;86.84;95460.97;10412387;28;20771;-83
2021/05/09 22:44:21;;;;;;;7.10;3.10;;;;;;;11.35;88.13;95457.72;10412580;28;20075;-83
2021/05/09 22:49:22;;;;;;;2.80;2.60;;;;;;;11.42;88.34;95438.66;10412041;28;20086;-82
2021/05/09 22:54:22;;;;;;;2.77;2.57;;;;;;;11.40;88.56;95436.22;10412852;28;20299;-81
2021/05/09 22:59:23;;;;;;;2.37;2.10;;;;;;;11.48;88.05;95434.09;10411585;28;20056;-82
2021/05/09 23:04:23;;;;;;;4.15;2.50;;;;;;;11.37;89.44;95441.31;10411791;28;20030;-82
2021/05/09 23:09:23;;;;;;;2.90;2.70;;;;;;;11.26;90.67;95437.72;10411401;28;20112;-82
2021/05/09 23:14:26;;;;;;;5.95;2.53;;;;;;;11.32;91.79;95436.72;10393953;28;20025;-82
2021/05/09 23:19:34;;;;;;;2.97;2.78;;;;;;;11.24;91.75;95439.88;10412038;28;20383;-82
2021/05/09 23:24:35;;;;;;;;;;;;;;;11.24;92.70;95434.50;10413055;28;20026;-81
2021/05/09 23:29:35;;;;;;;4.07;3.50;;;;;;;10.92;96.05;95421.91;10411377;28;19913;-81
2021/05/09 23:34:36;;;;;;;3.05;2.85;;;;;;;10.70;98.38;95422.00;10402444;28;20136;-82